sensor_id;sensor_type;location;lat;lon;timestamp;temperature;humidity
11089;DHT22;5598;48.648;8.908;2023-05-29T00:01:56;15.00;80.40
11089;DHT22;5598;48.648;8.908;2023-05-29T00:06:50;14.90;80.40
11089;DHT22;5598;48.648;8.908;2023-05-29T00:11:44;14.80;79.60
11089;DHT22;5598;48.648;8.908;2023-05-29T00:14:17;14.80;80.60
11089;DHT22;5598;48.648;8.908;2023-05-29T00:16:45;14.70;80.00
11089;DHT22;5598;48.648;8.908;2023-05-29T00:19:12;14.60;80.30
11089;DHT22;5598;48.648;8.908;2023-05-29T00:21:39;14.60;81.40
11089;DHT22;5598;48.648;8.908;2023-05-29T00:24:05;14.60;81.00
11089;DHT22;5598;48.648;8.908;2023-05-29T00:26:32;14.60;81.20
11089;DHT22;5598;48.648;8.908;2023-05-29T00:28:59;14.60;80.50
11089;DHT22;5598;48.648;8.908;2023-05-29T00:31:27;14.50;80.20
11089;DHT22;5598;48.648;8.908;2023-05-29T00:33:54;14.40;81.00
11089;DHT22;5598;48.648;8.908;2023-05-29T00:38:49;14.40;80.80
11089;DHT22;5598;48.648;8.908;2023-05-29T00:46:13;14.20;80.90
11089;DHT22;5598;48.648;8.908;2023-05-29T00:48:42;14.10;82.10
11089;DHT22;5598;48.648;8.908;2023-05-29T00:51:10;14.10;82.50
11089;DHT22;5598;48.648;8.908;2023-05-29T00:53:40;14.00;82.20
11089;DHT22;5598;48.648;8.908;2023-05-29T00:56:07;14.00;82.60
11089;DHT22;5598;48.648;8.908;2023-05-29T01:01:02;14.00;81.20
11089;DHT22;5598;48.648;8.908;2023-05-29T01:03:29;14.00;81.70
11089;DHT22;5598;48.648;8.908;2023-05-29T01:06:02;14.10;82.00
11089;DHT22;5598;48.648;8.908;2023-05-29T01:08:30;13.90;82.90
11089;DHT22;5598;48.648;8.908;2023-05-29T01:11:01;13.90;82.80
11089;DHT22;5598;48.648;8.908;2023-05-29T01:13:32;13.80;83.70
11089;DHT22;5598;48.648;8.908;2023-05-29T01:16:07;13.90;83.80
11089;DHT22;5598;48.648;8.908;2023-05-29T01:18:41;13.80;83.80
11089;DHT22;5598;48.648;8.908;2023-05-29T01:21:17;13.80;83.70
11089;DHT22;5598;48.648;8.908;2023-05-29T01:23:53;13.80;83.20
11089;DHT22;5598;48.648;8.908;2023-05-29T01:26:48;13.80;83.70
11089;DHT22;5598;48.648;8.908;2023-05-29T01:29:19;13.70;84.20
11089;DHT22;5598;48.648;8.908;2023-05-29T01:31:48;13.70;83.40
11089;DHT22;5598;48.648;8.908;2023-05-29T01:39:09;13.70;83.00
11089;DHT22;5598;48.648;8.908;2023-05-29T01:41:36;13.60;82.80
11089;DHT22;5598;48.648;8.908;2023-05-29T01:44:06;13.70;83.10
11089;DHT22;5598;48.648;8.908;2023-05-29T01:46:35;13.70;82.70
11089;DHT22;5598;48.648;8.908;2023-05-29T01:49:03;13.70;83.20
11089;DHT22;5598;48.648;8.908;2023-05-29T01:53:58;13.60;82.90
11089;DHT22;5598;48.648;8.908;2023-05-29T01:56:26;13.50;84.40
11089;DHT22;5598;48.648;8.908;2023-05-29T01:58:54;13.40;84.10
11089;DHT22;5598;48.648;8.908;2023-05-29T02:01:23;13.30;84.20
11089;DHT22;5598;48.648;8.908;2023-05-29T02:03:50;13.30;84.90
11089;DHT22;5598;48.648;8.908;2023-05-29T02:06:17;13.30;85.00
11089;DHT22;5598;48.648;8.908;2023-05-29T02:08:44;13.20;84.30
11089;DHT22;5598;48.648;8.908;2023-05-29T02:11:11;13.20;85.20
11089;DHT22;5598;48.648;8.908;2023-05-29T02:13:38;13.30;85.10
11089;DHT22;5598;48.648;8.908;2023-05-29T02:16:05;13.10;84.50
11089;DHT22;5598;48.648;8.908;2023-05-29T02:18:34;13.10;84.40
11089;DHT22;5598;48.648;8.908;2023-05-29T02:21:01;13.10;85.00
11089;DHT22;5598;48.648;8.908;2023-05-29T02:23:28;13.00;85.10
11089;DHT22;5598;48.648;8.908;2023-05-29T02:35:45;12.70;83.50
11089;DHT22;5598;48.648;8.908;2023-05-29T02:43:06;12.70;84.10
11089;DHT22;5598;48.648;8.908;2023-05-29T02:48:00;12.60;84.00
11089;DHT22;5598;48.648;8.908;2023-05-29T02:50:26;12.60;85.00
11089;DHT22;5598;48.648;8.908;2023-05-29T02:52:55;12.60;84.50
11089;DHT22;5598;48.648;8.908;2023-05-29T02:55:22;12.40;84.60
11089;DHT22;5598;48.648;8.908;2023-05-29T02:57:49;12.50;85.20
11089;DHT22;5598;48.648;8.908;2023-05-29T03:00:18;12.50;85.60
11089;DHT22;5598;48.648;8.908;2023-05-29T03:02:46;12.50;84.90
11089;DHT22;5598;48.648;8.908;2023-05-29T03:05:13;12.40;85.30
11089;DHT22;5598;48.648;8.908;2023-05-29T03:07:40;12.40;84.30
11089;DHT22;5598;48.648;8.908;2023-05-29T03:10:09;12.40;84.90
11089;DHT22;5598;48.648;8.908;2023-05-29T03:12:36;12.40;85.30
11089;DHT22;5598;48.648;8.908;2023-05-29T03:15:04;12.40;85.60
11089;DHT22;5598;48.648;8.908;2023-05-29T03:17:30;12.30;85.60
11089;DHT22;5598;48.648;8.908;2023-05-29T03:19:57;12.30;85.60
11089;DHT22;5598;48.648;8.908;2023-05-29T03:22:24;12.30;86.10
11089;DHT22;5598;48.648;8.908;2023-05-29T03:27:19;12.10;85.70
11089;DHT22;5598;48.648;8.908;2023-05-29T03:29:46;12.00;85.50
11089;DHT22;5598;48.648;8.908;2023-05-29T03:32:13;11.90;85.90
11089;DHT22;5598;48.648;8.908;2023-05-29T03:39:34;12.10;86.10
11089;DHT22;5598;48.648;8.908;2023-05-29T03:42:01;12.10;86.20
11089;DHT22;5598;48.648;8.908;2023-05-29T03:44:29;12.00;85.60
11089;DHT22;5598;48.648;8.908;2023-05-29T03:56:45;11.90;84.90
11089;DHT22;5598;48.648;8.908;2023-05-29T04:01:40;12.00;85.10
11089;DHT22;5598;48.648;8.908;2023-05-29T04:11:32;12.00;86.40
11089;DHT22;5598;48.648;8.908;2023-05-29T04:13:59;12.00;87.80
11089;DHT22;5598;48.648;8.908;2023-05-29T04:16:27;11.90;87.30
11089;DHT22;5598;48.648;8.908;2023-05-29T04:18:55;11.80;87.50
11089;DHT22;5598;48.648;8.908;2023-05-29T04:21:22;11.80;87.80
11089;DHT22;5598;48.648;8.908;2023-05-29T04:23:49;11.80;87.40
11089;DHT22;5598;48.648;8.908;2023-05-29T04:26:16;11.80;87.30
11089;DHT22;5598;48.648;8.908;2023-05-29T04:28:43;11.80;87.50
11089;DHT22;5598;48.648;8.908;2023-05-29T04:31:10;11.80;87.90
11089;DHT22;5598;48.648;8.908;2023-05-29T04:33:39;11.80;87.90
11089;DHT22;5598;48.648;8.908;2023-05-29T04:36:08;11.80;88.40
11089;DHT22;5598;48.648;8.908;2023-05-29T04:38:36;11.60;88.80
11089;DHT22;5598;48.648;8.908;2023-05-29T04:50:52;11.60;90.50
11089;DHT22;5598;48.648;8.908;2023-05-29T04:53:20;11.80;91.10
11089;DHT22;5598;48.648;8.908;2023-05-29T04:55:49;11.60;91.20
11089;DHT22;5598;48.648;8.908;2023-05-29T04:58:16;11.70;91.00
11089;DHT22;5598;48.648;8.908;2023-05-29T05:00:42;11.70;91.30
11089;DHT22;5598;48.648;8.908;2023-05-29T05:05:37;11.80;91.20
11089;DHT22;5598;48.648;8.908;2023-05-29T05:08:03;11.90;91.30
11089;DHT22;5598;48.648;8.908;2023-05-29T05:10:32;11.90;90.70
11089;DHT22;5598;48.648;8.908;2023-05-29T05:15:28;12.00;91.10
11089;DHT22;5598;48.648;8.908;2023-05-29T05:17:54;12.10;91.50
11089;DHT22;5598;48.648;8.908;2023-05-29T05:20:21;12.20;91.70
11089;DHT22;5598;48.648;8.908;2023-05-29T05:25:15;12.40;91.60
11089;DHT22;5598;48.648;8.908;2023-05-29T05:27:43;12.40;91.90
11089;DHT22;5598;48.648;8.908;2023-05-29T05:30:11;12.50;91.70
11089;DHT22;5598;48.648;8.908;2023-05-29T05:35:06;12.60;91.70
11089;DHT22;5598;48.648;8.908;2023-05-29T05:37:34;12.60;92.10
11089;DHT22;5598;48.648;8.908;2023-05-29T05:42:29;12.70;91.90
11089;DHT22;5598;48.648;8.908;2023-05-29T05:44:57;12.70;92.00
11089;DHT22;5598;48.648;8.908;2023-05-29T05:47:24;12.80;91.80
11089;DHT22;5598;48.648;8.908;2023-05-29T05:52:18;13.00;91.40
11089;DHT22;5598;48.648;8.908;2023-05-29T05:54:45;13.10;91.60
11089;DHT22;5598;48.648;8.908;2023-05-29T05:57:12;13.10;91.30
11089;DHT22;5598;48.648;8.908;2023-05-29T06:02:07;13.20;91.00
11089;DHT22;5598;48.648;8.908;2023-05-29T06:04:34;13.30;91.40
11089;DHT22;5598;48.648;8.908;2023-05-29T06:07:01;13.40;91.30
11089;DHT22;5598;48.648;8.908;2023-05-29T06:11:55;13.70;91.20
11089;DHT22;5598;48.648;8.908;2023-05-29T06:14:22;13.80;91.50
11089;DHT22;5598;48.648;8.908;2023-05-29T06:16:49;13.80;91.60
11089;DHT22;5598;48.648;8.908;2023-05-29T06:19:18;14.00;91.60
11089;DHT22;5598;48.648;8.908;2023-05-29T06:21:44;14.00;91.90
11089;DHT22;5598;48.648;8.908;2023-05-29T06:26:39;14.30;92.20
11089;DHT22;5598;48.648;8.908;2023-05-29T06:34:00;14.70;91.00
11089;DHT22;5598;48.648;8.908;2023-05-29T06:36:28;14.80;90.50
11089;DHT22;5598;48.648;8.908;2023-05-29T06:46:17;15.20;85.80
11089;DHT22;5598;48.648;8.908;2023-05-29T06:48:44;15.20;85.50
11089;DHT22;5598;48.648;8.908;2023-05-29T06:53:39;15.60;85.50
11089;DHT22;5598;48.648;8.908;2023-05-29T06:56:06;15.60;86.30
11089;DHT22;5598;48.648;8.908;2023-05-29T07:01:00;15.80;84.60
11089;DHT22;5598;48.648;8.908;2023-05-29T07:05:54;16.00;84.00
11089;DHT22;5598;48.648;8.908;2023-05-29T07:10:49;16.30;84.60
11089;DHT22;5598;48.648;8.908;2023-05-29T07:13:16;16.40;85.00
11089;DHT22;5598;48.648;8.908;2023-05-29T07:15:43;16.60;85.20
11089;DHT22;5598;48.648;8.908;2023-05-29T07:28:00;16.90;83.80
11089;DHT22;5598;48.648;8.908;2023-05-29T07:30:27;17.00;84.30
11089;DHT22;5598;48.648;8.908;2023-05-29T07:37:48;17.40;82.00
11089;DHT22;5598;48.648;8.908;2023-05-29T07:40:16;17.60;82.50
11089;DHT22;5598;48.648;8.908;2023-05-29T07:42:43;17.50;82.60
11089;DHT22;5598;48.648;8.908;2023-05-29T07:45:11;17.60;81.50
11089;DHT22;5598;48.648;8.908;2023-05-29T07:47:38;17.70;82.20
11089;DHT22;5598;48.648;8.908;2023-05-29T07:50:06;17.80;81.50
11089;DHT22;5598;48.648;8.908;2023-05-29T07:54:59;18.20;80.80
11089;DHT22;5598;48.648;8.908;2023-05-29T07:57:27;18.40;81.10
11089;DHT22;5598;48.648;8.908;2023-05-29T08:02:22;18.60;79.50
11089;DHT22;5598;48.648;8.908;2023-05-29T08:04:49;18.90;80.80
11089;DHT22;5598;48.648;8.908;2023-05-29T08:07:16;19.10;80.00
11089;DHT22;5598;48.648;8.908;2023-05-29T08:14:37;19.80;76.90
11089;DHT22;5598;48.648;8.908;2023-05-29T08:17:04;20.10;76.40
11089;DHT22;5598;48.648;8.908;2023-05-29T08:19:33;20.40;75.50
11089;DHT22;5598;48.648;8.908;2023-05-29T08:26:54;21.30;70.90
11089;DHT22;5598;48.648;8.908;2023-05-29T08:29:21;21.60;71.60
11089;DHT22;5598;48.648;8.908;2023-05-29T08:31:48;22.10;72.20
11089;DHT22;5598;48.648;8.908;2023-05-29T08:34:15;22.50;69.90
11089;DHT22;5598;48.648;8.908;2023-05-29T08:36:43;22.90;67.00
11089;DHT22;5598;48.648;8.908;2023-05-29T08:39:10;23.40;68.40
11089;DHT22;5598;48.648;8.908;2023-05-29T08:41:49;23.90;66.50
11089;DHT22;5598;48.648;8.908;2023-05-29T08:44:21;24.30;65.40
11089;DHT22;5598;48.648;8.908;2023-05-29T08:46:50;24.70;65.00
11089;DHT22;5598;48.648;8.908;2023-05-29T08:49:21;25.00;64.60
11089;DHT22;5598;48.648;8.908;2023-05-29T08:51:56;25.30;63.50
11089;DHT22;5598;48.648;8.908;2023-05-29T08:54:24;25.60;62.80
11089;DHT22;5598;48.648;8.908;2023-05-29T08:56:53;25.70;58.70
11089;DHT22;5598;48.648;8.908;2023-05-29T08:59:20;25.80;59.00
11089;DHT22;5598;48.648;8.908;2023-05-29T09:01:47;25.90;59.50
11089;DHT22;5598;48.648;8.908;2023-05-29T09:04:14;26.10;59.20
11089;DHT22;5598;48.648;8.908;2023-05-29T09:06:41;26.30;56.50
11089;DHT22;5598;48.648;8.908;2023-05-29T09:09:09;26.40;57.20
11089;DHT22;5598;48.648;8.908;2023-05-29T09:11:36;26.50;57.20
11089;DHT22;5598;48.648;8.908;2023-05-29T09:14:03;26.80;56.60
11089;DHT22;5598;48.648;8.908;2023-05-29T09:16:30;27.00;56.30
11089;DHT22;5598;48.648;8.908;2023-05-29T09:19:04;27.20;56.70
11089;DHT22;5598;48.648;8.908;2023-05-29T09:21:32;27.50;56.60
11089;DHT22;5598;48.648;8.908;2023-05-29T09:24:03;27.80;56.30
11089;DHT22;5598;48.648;8.908;2023-05-29T09:26:32;28.00;55.60
11089;DHT22;5598;48.648;8.908;2023-05-29T09:28:59;28.20;56.10
11089;DHT22;5598;48.648;8.908;2023-05-29T09:31:26;28.40;56.90
11089;DHT22;5598;48.648;8.908;2023-05-29T09:33:54;28.50;53.80
11089;DHT22;5598;48.648;8.908;2023-05-29T09:36:21;28.70;53.80
11089;DHT22;5598;48.648;8.908;2023-05-29T09:38:48;28.80;52.60
11089;DHT22;5598;48.648;8.908;2023-05-29T09:41:20;28.80;53.50
11089;DHT22;5598;48.648;8.908;2023-05-29T09:43:49;28.90;51.40
11089;DHT22;5598;48.648;8.908;2023-05-29T09:46:16;28.90;53.40
11089;DHT22;5598;48.648;8.908;2023-05-29T09:48:44;29.00;52.90
11089;DHT22;5598;48.648;8.908;2023-05-29T09:51:20;29.00;52.10
11089;DHT22;5598;48.648;8.908;2023-05-29T09:53:47;28.90;52.70
11089;DHT22;5598;48.648;8.908;2023-05-29T09:56:16;29.20;53.60
11089;DHT22;5598;48.648;8.908;2023-05-29T09:58:43;29.60;52.90
11089;DHT22;5598;48.648;8.908;2023-05-29T10:01:13;29.70;51.50
11089;DHT22;5598;48.648;8.908;2023-05-29T10:03:41;29.70;50.70
11089;DHT22;5598;48.648;8.908;2023-05-29T10:06:10;29.60;52.90
11089;DHT22;5598;48.648;8.908;2023-05-29T10:08:43;29.90;52.00
11089;DHT22;5598;48.648;8.908;2023-05-29T10:11:13;30.20;51.30
11089;DHT22;5598;48.648;8.908;2023-05-29T10:13:42;30.30;50.00
11089;DHT22;5598;48.648;8.908;2023-05-29T10:16:19;30.40;50.30
11089;DHT22;5598;48.648;8.908;2023-05-29T10:18:50;30.40;51.10
11089;DHT22;5598;48.648;8.908;2023-05-29T10:21:18;30.50;49.50
11089;DHT22;5598;48.648;8.908;2023-05-29T10:23:47;30.60;49.40
11089;DHT22;5598;48.648;8.908;2023-05-29T10:26:19;30.50;49.30
11089;DHT22;5598;48.648;8.908;2023-05-29T10:28:55;30.10;50.50
11089;DHT22;5598;48.648;8.908;2023-05-29T10:31:30;30.00;49.80
11089;DHT22;5598;48.648;8.908;2023-05-29T10:34:09;29.80;51.10
11089;DHT22;5598;48.648;8.908;2023-05-29T10:36:42;29.80;50.60
11089;DHT22;5598;48.648;8.908;2023-05-29T10:39:11;29.90;51.10
11089;DHT22;5598;48.648;8.908;2023-05-29T10:41:38;30.10;50.80
11089;DHT22;5598;48.648;8.908;2023-05-29T10:44:38;30.00;51.30
11089;DHT22;5598;48.648;8.908;2023-05-29T10:47:08;29.80;50.40
11089;DHT22;5598;48.648;8.908;2023-05-29T10:49:37;29.80;50.00
11089;DHT22;5598;48.648;8.908;2023-05-29T10:52:04;29.80;50.60
11089;DHT22;5598;48.648;8.908;2023-05-29T10:54:41;29.90;49.60
11089;DHT22;5598;48.648;8.908;2023-05-29T10:57:16;29.80;51.10
11089;DHT22;5598;48.648;8.908;2023-05-29T10:59:44;30.00;51.10
11089;DHT22;5598;48.648;8.908;2023-05-29T11:02:17;30.20;50.00
11089;DHT22;5598;48.648;8.908;2023-05-29T11:04:44;30.30;48.90
11089;DHT22;5598;48.648;8.908;2023-05-29T11:07:33;30.30;49.40
11089;DHT22;5598;48.648;8.908;2023-05-29T11:10:11;30.40;50.00
11089;DHT22;5598;48.648;8.908;2023-05-29T11:12:57;30.50;49.70
11089;DHT22;5598;48.648;8.908;2023-05-29T11:15:25;30.40;49.20
11089;DHT22;5598;48.648;8.908;2023-05-29T11:17:54;30.60;49.00
11089;DHT22;5598;48.648;8.908;2023-05-29T11:20:34;30.30;48.00
11089;DHT22;5598;48.648;8.908;2023-05-29T11:23:03;29.90;48.50
11089;DHT22;5598;48.648;8.908;2023-05-29T11:25:35;29.70;50.00
11089;DHT22;5598;48.648;8.908;2023-05-29T11:28:02;29.80;50.60
11089;DHT22;5598;48.648;8.908;2023-05-29T11:30:41;30.10;51.80
11089;DHT22;5598;48.648;8.908;2023-05-29T11:33:18;30.50;51.10
11089;DHT22;5598;48.648;8.908;2023-05-29T11:35:48;30.90;50.70
11089;DHT22;5598;48.648;8.908;2023-05-29T11:38:16;31.10;50.00
11089;DHT22;5598;48.648;8.908;2023-05-29T11:40:44;31.10;50.40
11089;DHT22;5598;48.648;8.908;2023-05-29T11:43:12;31.40;49.60
11089;DHT22;5598;48.648;8.908;2023-05-29T11:45:39;31.50;47.90
11089;DHT22;5598;48.648;8.908;2023-05-29T11:48:06;31.80;48.10
11089;DHT22;5598;48.648;8.908;2023-05-29T11:50:36;32.50;47.00
11089;DHT22;5598;48.648;8.908;2023-05-29T11:53:06;33.00;46.90
11089;DHT22;5598;48.648;8.908;2023-05-29T11:55:33;33.30;45.50
11089;DHT22;5598;48.648;8.908;2023-05-29T11:58:01;33.30;46.30
11089;DHT22;5598;48.648;8.908;2023-05-29T12:00:30;33.10;47.20
11089;DHT22;5598;48.648;8.908;2023-05-29T12:02:58;33.10;47.10
11089;DHT22;5598;48.648;8.908;2023-05-29T12:05:29;33.20;46.30
11089;DHT22;5598;48.648;8.908;2023-05-29T12:07:58;33.20;46.40
11089;DHT22;5598;48.648;8.908;2023-05-29T12:10:27;33.00;45.10
11089;DHT22;5598;48.648;8.908;2023-05-29T12:12:55;32.70;45.40
11089;DHT22;5598;48.648;8.908;2023-05-29T12:15:22;32.70;46.20
11089;DHT22;5598;48.648;8.908;2023-05-29T12:17:50;32.70;45.30
11089;DHT22;5598;48.648;8.908;2023-05-29T12:20:18;32.70;46.20
11089;DHT22;5598;48.648;8.908;2023-05-29T12:22:45;32.60;46.90
11089;DHT22;5598;48.648;8.908;2023-05-29T12:25:15;32.40;44.90
11089;DHT22;5598;48.648;8.908;2023-05-29T12:27:43;31.90;44.70
11089;DHT22;5598;48.648;8.908;2023-05-29T12:30:13;31.70;46.00
11089;DHT22;5598;48.648;8.908;2023-05-29T12:32:42;31.70;45.30
11089;DHT22;5598;48.648;8.908;2023-05-29T12:35:13;31.80;45.50
11089;DHT22;5598;48.648;8.908;2023-05-29T12:37:45;32.00;46.30
11089;DHT22;5598;48.648;8.908;2023-05-29T12:40:17;31.80;45.80
11089;DHT22;5598;48.648;8.908;2023-05-29T12:42:45;31.50;44.70
11089;DHT22;5598;48.648;8.908;2023-05-29T12:45:12;31.30;46.20
11089;DHT22;5598;48.648;8.908;2023-05-29T12:47:45;31.40;44.60
11089;DHT22;5598;48.648;8.908;2023-05-29T12:50:23;31.50;46.00
11089;DHT22;5598;48.648;8.908;2023-05-29T12:52:55;31.50;45.40
11089;DHT22;5598;48.648;8.908;2023-05-29T12:55:23;31.70;45.40
11089;DHT22;5598;48.648;8.908;2023-05-29T12:57:51;31.50;44.60
11089;DHT22;5598;48.648;8.908;2023-05-29T13:00:19;31.30;44.40
11089;DHT22;5598;48.648;8.908;2023-05-29T13:02:46;31.20;46.20
11089;DHT22;5598;48.648;8.908;2023-05-29T13:05:14;31.50;44.60
11089;DHT22;5598;48.648;8.908;2023-05-29T13:07:41;31.60;44.50
11089;DHT22;5598;48.648;8.908;2023-05-29T13:10:08;31.80;43.40
11089;DHT22;5598;48.648;8.908;2023-05-29T13:12:37;31.70;42.80
11089;DHT22;5598;48.648;8.908;2023-05-29T13:15:04;31.60;43.00
11089;DHT22;5598;48.648;8.908;2023-05-29T13:17:31;31.40;44.90
11089;DHT22;5598;48.648;8.908;2023-05-29T13:19:58;31.40;43.50
11089;DHT22;5598;48.648;8.908;2023-05-29T13:22:25;31.30;42.80
11089;DHT22;5598;48.648;8.908;2023-05-29T13:24:56;31.30;42.40
11089;DHT22;5598;48.648;8.908;2023-05-29T13:27:23;31.20;44.80
11089;DHT22;5598;48.648;8.908;2023-05-29T13:29:52;31.00;43.00
11089;DHT22;5598;48.648;8.908;2023-05-29T13:32:18;31.00;44.20
11089;DHT22;5598;48.648;8.908;2023-05-29T13:34:45;31.20;43.70
11089;DHT22;5598;48.648;8.908;2023-05-29T13:37:12;31.20;43.70
11089;DHT22;5598;48.648;8.908;2023-05-29T13:39:39;31.20;43.60
11089;DHT22;5598;48.648;8.908;2023-05-29T13:42:07;31.30;43.40
11089;DHT22;5598;48.648;8.908;2023-05-29T13:44:34;31.20;43.70
11089;DHT22;5598;48.648;8.908;2023-05-29T13:47:03;30.90;41.90
11089;DHT22;5598;48.648;8.908;2023-05-29T13:49:30;30.70;43.00
11089;DHT22;5598;48.648;8.908;2023-05-29T13:51:57;30.60;41.80
11089;DHT22;5598;48.648;8.908;2023-05-29T13:54:23;30.50;44.50
11089;DHT22;5598;48.648;8.908;2023-05-29T13:56:50;30.40;42.50
11089;DHT22;5598;48.648;8.908;2023-05-29T13:59:17;30.30;43.40
11089;DHT22;5598;48.648;8.908;2023-05-29T14:01:44;30.50;42.60
11089;DHT22;5598;48.648;8.908;2023-05-29T14:04:12;30.60;42.60
11089;DHT22;5598;48.648;8.908;2023-05-29T14:06:39;30.60;43.50
11089;DHT22;5598;48.648;8.908;2023-05-29T14:09:06;30.50;42.30
11089;DHT22;5598;48.648;8.908;2023-05-29T14:11:35;30.30;42.20
11089;DHT22;5598;48.648;8.908;2023-05-29T14:14:02;30.00;41.40
11089;DHT22;5598;48.648;8.908;2023-05-29T14:16:29;29.90;43.30
11089;DHT22;5598;48.648;8.908;2023-05-29T14:18:56;29.90;42.80
11089;DHT22;5598;48.648;8.908;2023-05-29T14:21:24;30.10;43.40
11089;DHT22;5598;48.648;8.908;2023-05-29T14:23:51;30.20;43.10
11089;DHT22;5598;48.648;8.908;2023-05-29T14:26:18;30.10;42.90
11089;DHT22;5598;48.648;8.908;2023-05-29T14:28:45;29.90;42.90
11089;DHT22;5598;48.648;8.908;2023-05-29T14:31:12;29.90;44.20
11089;DHT22;5598;48.648;8.908;2023-05-29T14:33:39;30.00;43.20
11089;DHT22;5598;48.648;8.908;2023-05-29T14:36:06;29.90;42.70
11089;DHT22;5598;48.648;8.908;2023-05-29T14:38:34;29.80;42.70
11089;DHT22;5598;48.648;8.908;2023-05-29T14:41:02;29.80;43.60
11089;DHT22;5598;48.648;8.908;2023-05-29T14:43:28;29.80;44.10
11089;DHT22;5598;48.648;8.908;2023-05-29T14:45:55;29.80;43.30
11089;DHT22;5598;48.648;8.908;2023-05-29T14:48:22;29.90;42.40
11089;DHT22;5598;48.648;8.908;2023-05-29T14:50:49;29.90;43.10
11089;DHT22;5598;48.648;8.908;2023-05-29T14:53:15;30.00;43.10
11089;DHT22;5598;48.648;8.908;2023-05-29T14:55:44;30.00;43.70
11089;DHT22;5598;48.648;8.908;2023-05-29T14:58:11;29.90;42.20
11089;DHT22;5598;48.648;8.908;2023-05-29T15:00:39;29.80;43.90
11089;DHT22;5598;48.648;8.908;2023-05-29T15:03:06;29.90;43.20
11089;DHT22;5598;48.648;8.908;2023-05-29T15:05:33;29.90;43.80
11089;DHT22;5598;48.648;8.908;2023-05-29T15:08:00;29.70;43.10
11089;DHT22;5598;48.648;8.908;2023-05-29T15:10:27;29.50;43.40
11089;DHT22;5598;48.648;8.908;2023-05-29T15:12:55;29.40;43.60
11089;DHT22;5598;48.648;8.908;2023-05-29T15:15:23;29.30;44.60
11089;DHT22;5598;48.648;8.908;2023-05-29T15:17:51;29.30;42.90
11089;DHT22;5598;48.648;8.908;2023-05-29T15:20:21;29.30;43.20
11089;DHT22;5598;48.648;8.908;2023-05-29T15:22:48;29.00;43.50
11089;DHT22;5598;48.648;8.908;2023-05-29T15:25:16;28.90;43.30
11089;DHT22;5598;48.648;8.908;2023-05-29T15:27:43;28.80;43.60
11089;DHT22;5598;48.648;8.908;2023-05-29T15:30:13;28.80;44.20
11089;DHT22;5598;48.648;8.908;2023-05-29T15:32:41;28.90;45.70
11089;DHT22;5598;48.648;8.908;2023-05-29T15:35:08;29.00;45.20
11089;DHT22;5598;48.648;8.908;2023-05-29T15:37:35;29.00;45.30
11089;DHT22;5598;48.648;8.908;2023-05-29T15:40:03;29.00;45.20
11089;DHT22;5598;48.648;8.908;2023-05-29T15:42:31;29.10;45.20
11089;DHT22;5598;48.648;8.908;2023-05-29T15:44:57;28.90;45.60
11089;DHT22;5598;48.648;8.908;2023-05-29T15:47:26;28.90;45.40
11089;DHT22;5598;48.648;8.908;2023-05-29T15:49:52;28.80;45.30
11089;DHT22;5598;48.648;8.908;2023-05-29T15:52:19;28.80;46.00
11089;DHT22;5598;48.648;8.908;2023-05-29T15:54:46;28.50;44.20
11089;DHT22;5598;48.648;8.908;2023-05-29T15:57:13;28.30;43.20
11089;DHT22;5598;48.648;8.908;2023-05-29T15:59:40;28.00;45.50
11089;DHT22;5598;48.648;8.908;2023-05-29T16:02:06;28.00;46.10
11089;DHT22;5598;48.648;8.908;2023-05-29T16:04:35;28.00;47.10
11089;DHT22;5598;48.648;8.908;2023-05-29T16:07:02;28.10;45.90
11089;DHT22;5598;48.648;8.908;2023-05-29T16:09:29;28.20;46.90
11089;DHT22;5598;48.648;8.908;2023-05-29T16:11:56;28.20;46.70
11089;DHT22;5598;48.648;8.908;2023-05-29T16:14:23;28.20;46.30
11089;DHT22;5598;48.648;8.908;2023-05-29T16:16:49;28.10;46.90
11089;DHT22;5598;48.648;8.908;2023-05-29T16:19:16;28.20;47.40
11089;DHT22;5598;48.648;8.908;2023-05-29T16:21:45;28.10;46.70
11089;DHT22;5598;48.648;8.908;2023-05-29T16:24:12;28.00;46.40
11089;DHT22;5598;48.648;8.908;2023-05-29T16:26:39;27.90;47.10
11089;DHT22;5598;48.648;8.908;2023-05-29T16:29:05;27.80;48.50
11089;DHT22;5598;48.648;8.908;2023-05-29T16:31:32;27.80;47.80
11089;DHT22;5598;48.648;8.908;2023-05-29T16:33:59;27.80;48.30
11089;DHT22;5598;48.648;8.908;2023-05-29T16:36:26;27.80;48.40
11089;DHT22;5598;48.648;8.908;2023-05-29T16:38:54;27.70;47.50
11089;DHT22;5598;48.648;8.908;2023-05-29T16:41:21;27.60;47.20
11089;DHT22;5598;48.648;8.908;2023-05-29T16:43:48;27.40;47.70
11089;DHT22;5598;48.648;8.908;2023-05-29T16:46:15;27.40;47.70
11089;DHT22;5598;48.648;8.908;2023-05-29T16:48:42;27.40;49.30
11089;DHT22;5598;48.648;8.908;2023-05-29T16:51:09;27.40;48.00
11089;DHT22;5598;48.648;8.908;2023-05-29T16:53:36;27.40;48.40
11089;DHT22;5598;48.648;8.908;2023-05-29T16:56:06;27.40;49.10
11089;DHT22;5598;48.648;8.908;2023-05-29T16:58:33;27.30;48.30
11089;DHT22;5598;48.648;8.908;2023-05-29T17:01:00;27.30;48.90
11089;DHT22;5598;48.648;8.908;2023-05-29T17:03:27;27.10;49.10
11089;DHT22;5598;48.648;8.908;2023-05-29T17:05:54;27.10;49.50
11089;DHT22;5598;48.648;8.908;2023-05-29T17:08:20;27.10;49.20
11089;DHT22;5598;48.648;8.908;2023-05-29T17:10:47;27.10;49.00
11089;DHT22;5598;48.648;8.908;2023-05-29T17:13:15;27.00;48.70
11089;DHT22;5598;48.648;8.908;2023-05-29T17:15:42;27.00;49.40
11089;DHT22;5598;48.648;8.908;2023-05-29T17:18:09;26.90;49.60
11089;DHT22;5598;48.648;8.908;2023-05-29T17:20:36;26.90;49.40
11089;DHT22;5598;48.648;8.908;2023-05-29T17:23:03;26.80;49.50
11089;DHT22;5598;48.648;8.908;2023-05-29T17:25:30;26.80;48.80
11089;DHT22;5598;48.648;8.908;2023-05-29T17:27:57;26.80;48.70
11089;DHT22;5598;48.648;8.908;2023-05-29T17:30:26;26.70;49.30
11089;DHT22;5598;48.648;8.908;2023-05-29T17:32:53;26.60;49.80
11089;DHT22;5598;48.648;8.908;2023-05-29T17:35:20;26.60;49.50
11089;DHT22;5598;48.648;8.908;2023-05-29T17:37:46;26.50;49.00
11089;DHT22;5598;48.648;8.908;2023-05-29T17:40:13;26.40;50.90
11089;DHT22;5598;48.648;8.908;2023-05-29T17:42:40;26.40;51.00
11089;DHT22;5598;48.648;8.908;2023-05-29T17:45:07;26.30;50.40
11089;DHT22;5598;48.648;8.908;2023-05-29T17:47:36;26.20;50.80
11089;DHT22;5598;48.648;8.908;2023-05-29T17:50:03;26.20;50.90
11089;DHT22;5598;48.648;8.908;2023-05-29T17:52:30;26.10;50.00
11089;DHT22;5598;48.648;8.908;2023-05-29T17:54:57;26.00;50.40
11089;DHT22;5598;48.648;8.908;2023-05-29T17:57:24;25.90;50.60
11089;DHT22;5598;48.648;8.908;2023-05-29T17:59:50;25.80;51.20
11089;DHT22;5598;48.648;8.908;2023-05-29T18:02:17;25.70;51.20
11089;DHT22;5598;48.648;8.908;2023-05-29T18:04:46;25.60;52.30
11089;DHT22;5598;48.648;8.908;2023-05-29T18:07:15;25.50;51.80
11089;DHT22;5598;48.648;8.908;2023-05-29T18:09:42;25.40;52.60
11089;DHT22;5598;48.648;8.908;2023-05-29T18:12:10;25.40;51.90
11089;DHT22;5598;48.648;8.908;2023-05-29T18:14:37;25.30;52.40
11089;DHT22;5598;48.648;8.908;2023-05-29T18:17:04;25.20;52.30
11089;DHT22;5598;48.648;8.908;2023-05-29T18:19:32;25.10;51.80
11089;DHT22;5598;48.648;8.908;2023-05-29T18:22:00;25.00;52.80